Flight Track Log - Related Links

Times and Time Zones

All times are in EDT time to prevent confusion due to time zone crossing. See the UAL906 flight status page for this flight to view local times or setup timezone preferences in your user account.

Time Position Orientation Groundspeed Altitude Reporting Facility
EDT Latitude Longitude Course Direction KTS MPH feet Rate Location/Type
Wed 06:51:14 AM 50.0460 8.5660 120° Southeast 11 13  Level FlightAware
Wed 06:51:54 AM 50.0460 8.5650 270° West 10 12 75 Level FlightAware
Wed 06:54:00 AM 50.1753 8.2327 300° West  Level FlightAware
Wed 06:55:00 AM 50.2424 8.0820 308° West  Level FlightAware
Wed 06:56:00 AM 50.3094 7.9313 308° West  Level FlightAware
Wed 06:57:00 AM 50.3808 7.7847 305° West  Level FlightAware
Wed 06:57:00 AM 50.0450 8.5640 305° West 18 21  Level FlightAware
Wed 06:57:24 AM 50.0450 8.5630 270° West 26 30 117 Level FlightAware
Wed 06:57:48 AM 50.0440 8.5610 232° Southwest 26 30 122 Level FlightAware
Wed 06:58:04 AM 50.0440 8.5600 270° West 23 26 127 Level FlightAware
Wed 06:58:44 AM 50.0430 8.5610 147° Southeast 21 24 131 Level FlightAware
Wed 06:59:04 AM 50.0420 8.5600 213° Southwest 24 28 141 Level FlightAware
Wed 06:59:24 AM 50.0410 8.5610 147° Southeast 28 32 147 Level FlightAware
Wed 07:00:00 AM 50.0410 8.5630 90° East 30 35 154 Level FlightAware
Wed 07:00:28 AM 50.0420 8.5660 63° Northeast 26 30 166 Level FlightAware
Wed 07:00:55 AM 50.0420 8.5680 90° East 24 28 178 Level FlightAware
Wed 07:01:37 AM 50.0430 8.5700 52° Northeast 33 38 190 Level FlightAware
Wed 07:02:05 AM 50.0440 8.5730 63° Northeast 16 18 214 Level FlightAware
Wed 07:02:33 AM 50.0440 8.5760 90° East 16 18 234 Level FlightAware
Wed 07:02:49 AM 50.0450 8.5780 52° Northeast 17 20 257 Level FlightAware
Wed 07:03:17 AM 50.0460 8.5810 63° Northeast 34 39 273 Level FlightAware
Wed 07:03:45 AM 50.0460 8.5830 90° East 27 31 305 Level FlightAware
Wed 07:03:57 AM 50.0460 8.5840 90° East 27 31 346 Level FlightAware
Wed 07:04:45 AM 50.0460 8.5860 90° East 2 2 367 Level FlightAware
Wed 07:05:46 AM 50.0450 8.5860 180° South 25 29 486 Level FlightAware
Wed 07:06:13 AM 50.0440 8.5830 243° Southwest 57 66 828 Level FlightAware
Wed 07:06:33 AM 50.0410 8.5690 252° West 135 155 1,200 Level FlightAware
Wed 07:06:45 AM 50.0380 8.5560 250° West 175 201 1,800 Level FlightAware
Wed 07:07:13 AM 50.0300 8.5240 249° West 184 212 1,200 2,591 Climbing FlightAware
Wed 07:07:29 AM 50.0270 8.5010 259° West 186 214 1,900 2,182 Climbing FlightAware
Wed 07:07:57 AM 50.0290 8.4640 275° West 191 220 2,800 1,950 Climbing FlightAware
Wed 07:08:09 AM 50.0300 8.4480 276° West 192 221 3,200 1,765 Climbing FlightAware
Wed 07:08:31 AM 50.0270 8.4190 261° West 196 226 3,800 1,286 Climbing FlightAware
Wed 07:09:05 AM 50.0210 8.3650 260° West 230 265 4,400 1,154 Climbing FlightAware
Wed 07:09:23 AM 50.0180 8.3360 261° West 244 281 4,800 1,091 Climbing FlightAware
Wed 07:09:49 AM 50.0280 8.2920 289° West 273 314 5,200 1,778 Climbing FlightAware
Wed 07:10:17 AM 50.0550 8.2560 319° Northwest 274 315 6,400 2,464 Climbing FlightAware
Wed 07:10:45 AM 50.0800 8.2170 315° West 278 320 7,500 2,250 Climbing FlightAware
Wed 07:10:57 AM 50.0880 8.1960 301° West 281 323 7,900 2,143 Climbing FlightAware
Wed 07:11:27 AM 50.1090 8.1420 301° West 286 329 9,000 2,133 Climbing FlightAware
Wed 07:11:42 AM 50.1180 8.1170 299° West 289 333 9,500 1,889 Climbing FlightAware
Wed 07:12:21 AM 50.1570 8.0620 318° Northwest 303 349 10,700 1,518 Climbing FlightAware
Wed 07:13:05 AM 50.2120 8.0030 326° Northwest 335 386 11,600 1,214 Climbing FlightAware
Wed 07:13:45 AM 50.2680 7.9540 331° Northwest 358 412 12,400 1,214 Climbing FlightAware
Wed 07:14:29 AM 50.3350 7.8950 331° Northwest 384 442 13,300 1,429 Climbing FlightAware
Wed 07:15:09 AM 50.3980 7.8420 332° Northwest 395 455 14,400 1,857 Climbing FlightAware
Wed 07:15:53 AM 50.4690 7.7850 333° Northwest 398 458 15,900 2,074 Climbing FlightAware
Wed 07:16:30 AM 50.5290 7.7360 333° Northwest 396 456 17,200 1,792 Climbing FlightAware
Wed 07:17:10 AM 50.5850 7.6670 322° Northwest 398 458 18,200 1,482 Climbing FlightAware
Wed 07:17:55 AM 50.6440 7.5820 318° Northwest 398 458 19,300 1,537 Climbing FlightAware
Wed 07:18:32 AM 50.6920 7.5120 317° Northwest 404 465 20,300 1,615 Climbing FlightAware
Wed 07:19:13 AM 50.7500 7.4260 317° Northwest 408 470 21,400 1,482 Climbing FlightAware
Wed 07:19:57 AM 50.8160 7.3300 317° Northwest 416 479 22,400 1,229 Climbing FlightAware
Wed 07:20:36 AM 50.8690 7.2530 317° Northwest 423 487 23,100 1,214 Climbing FlightAware
Wed 07:21:21 AM 50.9350 7.1550 317° Northwest 423 487 24,100 1,341 Climbing FlightAware
Wed 07:22:01 AM 50.9950 7.0670 317° Northwest 429 494 25,000 918 Climbing FlightAware
Wed 07:22:46 AM 51.0640 6.9740 320° Northwest 450 518 25,400 776 Climbing FlightAware
Wed 07:23:26 AM 51.1280 6.8830 318° Northwest 451 519 26,100 975 Climbing FlightAware
Wed 07:24:06 AM 51.1740 6.7720 303° West 457 526 26,700 776 Climbing FlightAware
Wed 07:24:51 AM 51.2380 6.6550 311° West 470 541 27,200 706 Climbing FlightAware
Wed 07:25:31 AM 51.2990 6.5520 313° West 478 550 27,700 907 Climbing FlightAware
Wed 07:26:17 AM 51.3690 6.4330 313° West 483 556 28,500 988 Climbing FlightAware
Wed 07:26:56 AM 51.4310 6.3270 313° West 494 568 29,100 811 Climbing FlightAware
Wed 07:27:31 AM 51.4860 6.2330 313° West 500 575 29,500 800 Climbing FlightAware
Wed 07:28:11 AM 51.5490 6.1250 313° West 500 575 30,100 776 Climbing FlightAware
Wed 07:28:56 AM 51.6210 6.0020 313° West 506 582 30,600 825 Climbing FlightAware
Wed 07:29:31 AM 51.6760 5.9060 313° West 508 585 31,200 1,120 Climbing FlightAware
Wed 07:30:11 AM 51.7410 5.7930 313° West 506 582 32,000 977 Climbing FlightAware
Wed 07:30:14 AM 51.7447 5.7775 313° West 484 557 31,900 909 Descending FlightAware
Wed 07:30:44 AM 51.7915 5.6929 313° West 482 555 32,500 1,000 Climbing FlightAware
Wed 07:30:56 AM 51.8120 5.6690 313° West 506 582 32,600 842 Climbing FlightAware
Wed 07:31:41 AM 51.8840 5.5440 313° West 506 582 33,300 918 Climbing FlightAware
Wed 07:32:21 AM 51.9490 5.4290 313° West 503 579 33,900 480 Climbing FlightAware
Wed 07:32:56 AM 52.0067 5.3266 313° West 478 550 33,900 167 Level FlightAware
Wed 07:32:57 AM 52.0010 5.3350 313° West 503 579 34,000  Climbing FlightAware
Wed 07:33:32 AM 52.0625 5.2243 313° West 480 552 33,900  Descending FlightAware
Wed 07:33:43 AM 52.0790 5.1970 313° West 507 583 34,000 125 Climbing FlightAware
Wed 07:34:20 AM 52.1394 5.0904 313° West 478 550 34,000  Level FlightAware
Wed 07:34:23 AM 52.1400 5.0880 313° West 507 583 34,000  Level FlightAware
Wed 07:35:03 AM 52.2050 4.9720 312° West 506 582 34,000 -80 Level FlightAware
Wed 07:35:38 AM 52.2621 4.8702 312° West 480 552 33,900  Descending FlightAware
Wed 07:35:43 AM 52.2670 4.8590 312° West 507 583 34,000  Climbing FlightAware
Wed 07:36:14 AM 52.3165 4.7665 312° West 484 557 33,900  Descending FlightAware
Wed 07:36:23 AM 52.3310 4.7440 312° West 504 580 34,000 136 Climbing FlightAware
Wed 07:36:58 AM 52.3840 4.6460 312° West 504 580 34,000  Level FlightAware
Wed 07:37:43 AM 52.4490 4.5200 310° West 494 568 34,000  Level FlightAware
Wed 07:38:23 AM 52.5030 4.3940 305° West 495 570 34,000  Level FlightAware
Wed 07:39:08 AM 52.5590 4.2500 303° West 489 563 34,000  Level FlightAware
Wed 07:39:49 AM 52.6070 4.1260 303° West 491 565 34,000  Level FlightAware
Wed 07:40:33 AM 52.6610 3.9830 302° West 490 564 34,000  Level FlightAware
Wed 07:41:13 AM 52.7100 3.8540 302° West 489 563 34,000  Level FlightAware
Wed 07:41:53 AM 52.7550 3.7340 302° West 487 560 34,000  Level FlightAware
Wed 07:42:38 AM 52.8100 3.5870 302° West 481 554 34,000  Level FlightAware
Wed 07:43:13 AM 52.8535 3.4709 302° West 478 550 34,000  Level FlightAware
Wed 07:43:13 AM 52.8500 3.4780 302° West 481 554 34,000  Level FlightAware
Wed 07:43:58 AM 52.9020 3.3390 302° West 479 551 34,000  Level FlightAware
Wed 07:44:43 AM 52.9540 3.1950 301° West 477 549 34,000  Level FlightAware
Wed 07:45:23 AM 53.0000 3.0670 301° West 474 545 34,000  Level FlightAware
Wed 07:45:58 AM 53.0310 2.9500 294° West 471 542 34,000 -81 Level FlightAware
Wed 07:46:37 AM 53.0584 2.8105 294° West 476 548 33,900  Descending FlightAware
Wed 07:46:43 AM 53.0610 2.7940 294° West 473 544 34,000 136 Climbing FlightAware
Wed 07:47:21 AM 53.0860 2.6630 294° West 473 544 34,000 -143 Level FlightAware
Wed 07:47:25 AM 53.0903 2.6446 294° West 474 545 33,900  Descending FlightAware
Wed 07:48:04 AM 53.1130 2.5180 287° West 473 544 34,000 73 Climbing FlightAware
Wed 07:48:47 AM 53.1410 2.3670 287° West 474 545 34,000  Level FlightAware
Wed 07:49:25 AM 53.1666 2.2266 287° West 476 548 34,000  Level FlightAware
Wed 07:49:30 AM 53.1700 2.2130 287° West 475 547 34,000  Level FlightAware
Wed 07:50:07 AM 53.1935 2.0795 287° West 474 545 34,000  Level FlightAware
Wed 07:50:10 AM 53.1950 2.0730 287° West 476 548 34,000  Level FlightAware
Wed 07:50:47 AM 53.2180 1.9470 287° West 476 548 34,000  Level FlightAware
Wed 07:50:49 AM 53.2198 1.9339 287° West 474 545 34,000  Level FlightAware
Wed 07:51:03 AM 53.2285 1.8856 286° West 477 549 34,000  Level FlightAware
Wed 07:51:49 AM 53.2576 1.7229 286° West 476 548 34,000  Level FlightAware
Wed 07:52:04 AM 53.2673 1.6674 286° West 478 550 34,000  Level FlightAware
Wed 07:52:36 AM 53.2870 1.5560 287° West 479 551 34,000  Level FlightAware
Wed 07:53:08 AM 53.3067 1.4428 286° West 479 551 34,000  Level FlightAware
Wed 07:53:42 AM 53.3278 1.3217 286° West 480 552 34,000  Level FlightAware
Wed 07:54:13 AM 53.3469 1.2119 286° West 481 554 34,000  Level FlightAware
Wed 07:54:51 AM 53.3702 1.0763 286° West 481 554 34,000  Level FlightAware
Wed 07:55:31 AM 53.3944 0.9339 286° West 482 555 34,000  Level FlightAware
Wed 07:56:14 AM 53.4208 0.7773 286° West 482 555 34,000  Level FlightAware
Wed 07:56:52 AM 53.4436 0.6415 286° West 482 555 34,000  Level FlightAware
Wed 07:57:25 AM 53.4630 0.5250 286° West 484 557 34,000  Level FlightAware
Wed 07:57:42 AM 53.4739 0.4617 286° West 484 557 34,000  Level FlightAware
Wed 07:58:19 AM 53.5107 0.3382 297° West 492 566 34,000  Level FlightAware
Wed 07:58:50 AM 53.5510 0.2408 305° West 493 567 34,000  Level FlightAware
Wed 07:59:20 AM 53.5912 0.1475 306° West 494 568 34,000  Level FlightAware
Wed 07:59:50 AM 53.6321 0.0526 306° West 495 570 34,000  Level FlightAware
Wed 08:00:33 AM 53.6913 -0.0782 307° West 495 570 34,000  Level FlightAware
Wed 08:00:43 AM 53.7071 -0.1048 315° West 499 574 34,000  Level FlightAware
Wed 08:01:10 AM 53.7558 -0.1691 322° Northwest 502 578 34,000  Level FlightAware
Wed 08:01:45 AM 53.7860 -0.2050 325° Northwest 495 570 34,000  Level FlightAware
Wed 08:02:31 AM 53.9080 -0.3450 326° Northwest 494 568 34,000  Level FlightAware
Wed 08:03:11 AM 53.9810 -0.4300 326° Northwest 494 568 34,000  Level FlightAware
Wed 08:03:56 AM 54.0700 -0.5380 325° Northwest 499 574 34,000  Level FlightAware
Wed 08:04:36 AM 54.1369 -0.6500 316° Northwest 34,000  Level FlightAware
Wed 08:05:17 AM 54.1990 -0.7670 312° West 497 572 34,000  Level FlightAware
Wed 08:06:01 AM 54.2670 -0.8940 313° West 499 574 34,000  Level FlightAware
Wed 08:06:41 AM 54.3305 -1.0144 313° West 478 550 34,000  Level FlightAware
Wed 08:06:45 AM 54.3350 -1.0230 313° West 499 574 34,000  Level FlightAware
Wed 08:07:17 AM 54.3885 -1.1149 313° West 478 550 34,000  Level FlightAware
Wed 08:07:19 AM 54.3890 -1.1160 313° West 502 578 34,000  Level FlightAware
Wed 08:07:59 AM 54.4673 -1.2139 313° West 474 545 34,000  Level FlightAware
Wed 08:08:01 AM 54.4680 -1.2160 313° West 504 580 34,000  Level FlightAware
Wed 08:08:35 AM 54.5344 -1.2999 313° West 478 550 34,000  Level FlightAware
Wed 08:08:41 AM 54.5440 -1.3120 313° West 504 580 34,000  Level FlightAware
Wed 08:09:21 AM 54.6190 -1.4090 323° Northwest 505 581 34,000  Level FlightAware
Wed 08:09:57 AM 54.6850 -1.4950 323° Northwest 506 582 34,000  Level FlightAware
Wed 08:09:59 AM 54.6907 -1.5020 323° Northwest 474 545 34,000  Level FlightAware
Wed 08:10:35 AM 54.7577 -1.5900 323° Northwest 474 545 34,000  Level FlightAware
Wed 08:10:41 AM 54.7680 -1.6040 323° Northwest 506 582 34,000  Level FlightAware
Wed 08:11:16 AM 54.8348 -1.6938 323° Northwest 474 545 34,000  Level FlightAware
Wed 08:11:25 AM 54.8480 -1.7120 323° Northwest 506 582 34,000  Level FlightAware
Wed 08:12:04 AM 54.9235 -1.8134 323° Northwest 470 541 34,000  Level FlightAware
Wed 08:12:05 AM 54.9230 -1.8120 323° Northwest 507 583 34,000  Level FlightAware
Wed 08:12:49 AM 54.9950 -1.9370 315° West 503 579 34,000  Level FlightAware
Wed 08:13:29 AM 55.0370 -2.0770 298° West 502 578 34,000  Level FlightAware
Wed 08:14:13 AM 55.0840 -2.2380 297° West 504 580 34,000  Level FlightAware
Wed 08:14:45 AM 55.1170 -2.3560 296° West 504 580 34,000  Level FlightAware
Wed 08:15:27 AM 55.1600 -2.5050 297° West 506 582 34,000 -71 Level FlightAware
Wed 08:16:10 AM 55.2063 -2.6689 297° West 474 545 33,900  Descending FlightAware
Wed 08:16:13 AM 55.2090 -2.6780 297° West 507 583 34,000 162 Climbing FlightAware
Wed 08:16:47 AM 55.2430 -2.7990 296° West 507 583 34,000 -80 Level FlightAware
Wed 08:17:28 AM 55.2881 -2.9538 296° West 478 550 33,900  Descending FlightAware
Wed 08:17:31 AM 55.2910 -2.9620 296° West 506 582 34,000 143 Climbing FlightAware
Wed 08:18:10 AM 55.3310 -3.1020 297° West 505 581 34,000  Level FlightAware
Wed 08:18:43 AM 55.3630 -3.2130 297° West 505 581 34,000 -167 Level FlightAware
Wed 08:18:46 AM 55.3703 -3.2389 297° West 480 552 33,900  Descending FlightAware
Wed 08:19:21 AM 55.4060 -3.3600 297° West 505 581 34,000 146 Climbing FlightAware
Wed 08:19:27 AM 55.4146 -3.3911 297° West 478 550 34,000 -143 Level FlightAware
Wed 08:20:03 AM 55.4529 -3.5222 297° West 476 548 33,900 -83 Descending FlightAware
Wed 08:20:39 AM 55.4905 -3.6537 297° West 476 548 33,900 146 Level FlightAware
Wed 08:20:44 AM 55.4900 -3.6520 297° West 504 580 34,000  Climbing FlightAware
Wed 08:21:21 AM 55.5351 -3.8059 297° West 480 552 33,900  Descending FlightAware
Wed 08:21:22 AM 55.5340 -3.8030 297° West 499 574 34,000 130 Climbing FlightAware
Wed 08:22:07 AM 55.5800 -3.9580 297° West 497 572 34,000 -102 Level FlightAware
Wed 08:22:21 AM 55.5990 -4.0233 297° West 480 552 33,900  Descending FlightAware
Wed 08:22:54 AM 55.6320 -4.1360 297° West 499 574 34,000 83 Climbing FlightAware
Wed 08:23:33 AM 55.6747 -4.2838 297° West 476 548 34,000  Level FlightAware
Wed 08:23:38 AM 55.6790 -4.2970 297° West 499 574 34,000  Level FlightAware
Wed 08:24:14 AM 55.7160 -4.4250 297° West 499 574 34,000  Level FlightAware
Wed 08:24:59 AM 55.7640 -4.5920 297° West 498 573 34,000 -76 Level FlightAware
Wed 08:25:33 AM 55.8003 -4.7189 297° West 480 552 33,900  Descending FlightAware
Wed 08:25:44 AM 55.8100 -4.7510 297° West 496 571 34,000 118 Climbing FlightAware
Wed 08:26:24 AM 55.8510 -4.8960 297° West 490 564 34,000  Level FlightAware
Wed 08:27:04 AM 55.8920 -5.0440 296° West 490 564 34,000  Level FlightAware
Wed 08:27:39 AM 55.9282 -5.1753 296° West 472 543 34,000  Level FlightAware
Wed 08:27:45 AM 55.9320 -5.1900 296° West 491 565 34,000  Level FlightAware
Wed 08:28:29 AM 55.9770 -5.3550 296° West 494 568 34,000  Level FlightAware
Wed 08:29:10 AM 56.0160 -5.5010 296° West 494 568 34,000  Level FlightAware
Wed 08:29:45 AM 56.0525 -5.6376 296° West 480 552 34,000  Level FlightAware
Wed 08:29:45 AM 56.0520 -5.6340 296° West 493 567 34,000  Level FlightAware
Wed 08:30:15 AM 56.0819 -5.7477 296° West 478 550 34,000  Level FlightAware
Wed 08:30:26 AM 56.0910 -5.7840 296° West 493 567 34,000  Level FlightAware
Wed 08:31:13 AM 56.1340 -5.9450 296° West 491 565 34,000  Level FlightAware
Wed 08:31:45 AM 56.1692 -6.0785 296° West 476 548 34,000  Level FlightAware
Wed 08:31:50 AM 56.1730 -6.0910 296° West 492 566 34,000  Level FlightAware
Wed 08:32:36 AM 56.2170 -6.2590 295° West 493 567 34,000  Level FlightAware
Wed 08:33:15 AM 56.2560 -6.4060 296° West 492 566 34,000 240 Level FlightAware
Wed 08:33:51 AM 56.2915 -6.5422 296° West 476 548 34,300 391 Climbing FlightAware
Wed 08:34:01 AM 56.3000 -6.5750 296° West 495 570 34,300 367 Level FlightAware
Wed 08:34:40 AM 56.3370 -6.7210 295° West 501 577 34,600 525 Climbing FlightAware
Wed 08:35:21 AM 56.3791 -6.8813 295° West 480 552 35,000 585 Climbing FlightAware
Wed 08:35:21 AM 56.3780 -6.8770 295° West 503 579 35,000 600 Level FlightAware
Wed 08:35:51 AM 56.4084 -6.9953 295° West 484 557 35,300 682 Climbing FlightAware
Wed 08:36:05 AM 56.4220 -7.0470 295° West 499 574 35,500 643 Climbing FlightAware
Wed 08:36:47 AM 56.4610 -7.2010 295° West 499 574 35,900 395 Climbing FlightAware
Wed 08:37:21 AM 56.4890 -7.3425 295° West 486 559 36,000 150 Climbing FlightAware
Wed 08:37:27 AM 56.4930 -7.3620 295° West 500 575 36,000  Level FlightAware
Wed 08:38:11 AM 56.5250 -7.5290 289° West 500 575 36,000  Level FlightAware
Wed 08:38:47 AM 56.5550 -7.6760 290° West 500 575 36,000 -74 Level FlightAware
Wed 08:39:32 AM 56.5929 -7.8632 290° West 484 557 35,900  Descending FlightAware
Wed 08:39:43 AM 56.6000 -7.8990 290° West 502 578 36,000 118 Climbing FlightAware
Wed 08:40:23 AM 56.6320 -8.0570 290° West 502 578 36,000  Level FlightAware
Wed 08:41:03 AM 56.6640 -8.2180 290° West 504 580 36,000 -133 Level FlightAware
Wed 08:41:08 AM 56.6697 -8.2447 290° West 484 557 35,900 -171 Descending FlightAware
Wed 08:41:38 AM 56.6932 -8.3648 290° West 486 559 35,900 150 Level FlightAware
Wed 08:41:48 AM 56.7000 -8.4020 290° West 504 580 36,000 118 Climbing FlightAware
Wed 08:42:29 AM 56.7320 -8.5620 290° West 505 581 36,000 -75 Level FlightAware
Wed 08:43:08 AM 56.7636 -8.7264 290° West 488 562 35,900  Descending FlightAware
Wed 08:43:08 AM 56.7620 -8.7200 290° West 506 582 36,000  Climbing FlightAware
Wed 08:43:38 AM 56.7868 -8.8473 290° West 488 562 35,900  Descending FlightAware
Wed 08:43:44 AM 56.7890 -8.8620 290° West 505 581 36,000  Climbing FlightAware
Wed 08:44:14 AM 56.8141 -8.9919 290° West 490 564 35,900  Descending FlightAware
Wed 08:44:23 AM 56.8190 -9.0210 290° West 508 585 36,000 133 Climbing FlightAware
Wed 08:44:59 AM 56.8440 -9.1530 289° West 508 585 36,000  Level FlightAware
Wed 08:45:59 AM 56.8910 -9.4000 289° West 509 586 36,000  Level FlightAware
Wed 08:46:43 AM 56.9240 -9.5790 289° West 508 585 36,000  Level FlightAware
Wed 08:48:08 AM 56.9880 -9.9320 289° West 36,000  Level FlightAware
Wed 08:48:57 AM 57.0180 -10.1000 288° West 507 583 36,000  Level FlightAware
Wed 08:49:33 AM 57.0410 -10.2260 289° West 507 583 36,000  Level FlightAware
Wed 08:50:21 AM 57.0700 -10.3930 288° West 507 583 36,000  Level FlightAware
Wed 08:50:57 AM 57.0920 -10.5190 288° West 507 583 36,000  Level FlightAware
Wed 08:51:45 AM 57.1220 -10.6860 288° West 507 583 36,000  Level FlightAware
Wed 08:52:21 AM 57.1440 -10.8120 288° West 507 583 36,000  Level FlightAware
Wed 08:52:58 AM 57.1670 -10.9420 288° West 507 583 36,000  Level FlightAware
Wed 08:53:46 AM 57.1960 -11.1100 288° West 507 583 36,000  Level FlightAware
Wed 08:54:22 AM 57.2190 -11.2360 289° West 507 583 36,000  Level FlightAware
Wed 08:55:10 AM 57.2480 -11.4040 288° West 507 583 36,000  Level FlightAware
Wed 08:55:46 AM 57.2700 -11.5300 288° West 507 583 36,000  Level FlightAware
Wed 08:56:34 AM 57.3000 -11.6980 288° West 507 583 36,000  Level FlightAware
Wed 08:57:10 AM 57.3220 -11.8250 288° West 507 583 36,000  Level FlightAware
Wed 08:57:46 AM 57.3440 -11.9510 288° West 507 583 36,000  Level FlightAware
Wed 09:00:00 AM 57.4194 -12.4400 286° West  Level Estimated
Wed 09:01:00 AM 57.4525 -12.6596 286° West  Level Estimated
Wed 09:02:00 AM 57.4853 -12.8795 286° West  Level Estimated
Wed 09:03:00 AM 57.5177 -13.0999 285° West  Level Estimated
Wed 09:04:00 AM 57.5496 -13.3207 285° West  Level Estimated
Wed 09:05:00 AM 57.5831 -13.5549 285° West  Level Estimated
Wed 09:06:00 AM 57.6161 -13.7896 285° West  Level Estimated
Wed 09:07:00 AM 57.6487 -14.0246 285° West  Level Estimated
Wed 09:08:00 AM 57.6809 -14.2601 284° West  Level Estimated
Wed 09:09:00 AM 57.7126 -14.4960 284° West  Level Estimated
Wed 09:10:00 AM 57.7438 -14.7323 284° West  Level Estimated
Wed 09:11:00 AM 57.7747 -14.9691 284° West  Level Estimated
Wed 09:12:00 AM 57.8050 -15.2062 284° West  Level Estimated
Wed 09:13:00 AM 57.8350 -15.4437 283° West  Level Estimated
Wed 09:14:00 AM 57.8645 -15.6816 283° West  Level Estimated
Wed 09:15:00 AM 57.8936 -15.9199 283° West  Level Estimated
Wed 09:16:00 AM 57.9222 -16.1586 283° West  Level Estimated
Wed 09:17:00 AM 57.9503 -16.3976 283° West  Level Estimated
Wed 09:18:00 AM 57.9780 -16.6371 282° West  Level Estimated
Wed 09:19:00 AM 58.0053 -16.8769 282° West  Level Estimated
Wed 09:20:00 AM 58.0321 -17.1170 282° West  Level Estimated
Wed 09:21:00 AM 58.0585 -17.3575 282° West  Level Estimated
Wed 09:22:00 AM 58.0844 -17.5984 282° West  Level Estimated
Wed 09:23:00 AM 58.1098 -17.8396 281° West  Level Estimated
Wed 09:24:00 AM 58.1348 -18.0812 281° West  Level Estimated
Wed 09:25:00 AM 58.1593 -18.3231 281° West  Level Estimated
Wed 09:26:00 AM 58.1834 -18.5653 281° West  Level Estimated
Wed 09:27:00 AM 58.2070 -18.8079 281° West  Level Estimated
Wed 09:27:00 AM 59.0000 -20.0000 296° West 523 602 36,000  Level ETMS Enhanced
Wed 09:28:00 AM 58.2302 -19.0508 280° West  Level Estimated
Wed 09:29:00 AM 58.2529 -19.2939 280° West  Level Estimated
Wed 09:30:00 AM 58.2751 -19.5374 280° West  Level Estimated
Wed 09:31:00 AM 58.2969 -19.7812 280° West  Level Estimated
Wed 09:32:00 AM 58.3182 -20.0253 280° West  Level Estimated
Wed 09:33:00 AM 59.3745 -21.5378 295° West 523 602 36,000  Level FlightAware
Wed 09:34:00 AM 59.4351 -21.7974 295° West 523 602 36,000  Level FlightAware
Wed 09:35:00 AM 59.4952 -22.0579 294° West 523 602 36,000  Level FlightAware
Wed 09:36:00 AM 59.5548 -22.3193 294° West 523 602 36,000  Level FlightAware
Wed 09:37:00 AM 59.6139 -22.5817 294° West 523 602 36,000  Level FlightAware
Wed 09:38:00 AM 59.6724 -22.8449 294° West 523 602 36,000  Level FlightAware
Wed 09:39:00 AM 59.7304 -23.1091 293° West 523 602 36,000  Level FlightAware
Wed 09:40:00 AM 59.7879 -23.3742 293° West 523 602 36,000  Level FlightAware
Wed 09:41:00 AM 59.8448 -23.6402 293° West 523 602 36,000  Level FlightAware
Wed 09:42:00 AM 59.9013 -23.9072 293° West 523 602 36,000  Level FlightAware
Wed 09:43:00 AM 59.9571 -24.1750 292° West 523 602 36,000  Level FlightAware
Wed 09:44:00 AM 60.0125 -24.4437 292° West 523 602 36,000  Level FlightAware
Wed 09:45:00 AM 60.0672 -24.7133 292° West 523 602 36,000  Level FlightAware
Wed 09:46:00 AM 60.1215 -24.9838 292° West 523 602 36,000  Level FlightAware
Wed 09:47:00 AM 60.1751 -25.2552 292° West 523 602 36,000  Level FlightAware
Wed 09:47:02 AM 60.1240 -24.9070 292° West 505 581 36,000  Level FlightAware
Wed 09:47:39 AM 60.1540 -25.0570 292° West 503 579 36,000  Level FlightAware
Wed 09:48:19 AM 60.1820 -25.2050 291° West 503 579 36,000  Level FlightAware
Wed 09:49:07 AM 60.2300 -25.4430 292° West 499 574 36,000  Level FlightAware
Wed 09:49:48 AM 60.2590 -25.5950 291° West 499 574 36,000  Level FlightAware
Wed 09:50:25 AM 60.2850 -25.7310 291° West 499 574 36,000  Level FlightAware
Wed 09:51:30 AM 60.3450 -26.0470 291° West 498 573 36,000  Level FlightAware
Wed 09:52:06 AM 60.3690 -26.1810 290° West 498 573 36,000  Level FlightAware
Wed 09:52:54 AM 60.4010 -26.3600 290° West 498 573 36,000  Level FlightAware
Wed 09:53:30 AM 60.4250 -26.4940 290° West 498 573 36,000  Level FlightAware
Wed 09:54:31 AM 60.4660 -26.7220 290° West 498 573 36,000  Level FlightAware
Wed 09:55:08 AM 60.4910 -26.8600 290° West 498 573 36,000  Level FlightAware
Wed 09:55:47 AM 60.5520 -27.1720 292° West 491 565 36,000  Level FlightAware
Wed 09:56:23 AM 60.5780 -27.3240 289° West 490 564 36,000  Level FlightAware
Wed 09:57:11 AM 60.6160 -27.5370 290° West 490 564 36,000  Level FlightAware
Wed 09:57:59 AM 60.6500 -27.7360 289° West 489 563 36,000  Level FlightAware
Wed 09:58:39 AM 60.6820 -27.9210 290° West 490 564 36,000  Level FlightAware
Wed 09:59:20 AM 60.7110 -28.0940 289° West 489 563 36,000  Level FlightAware
Wed 09:59:59 AM 60.7400 -28.2650 289° West 490 564 36,000  Level FlightAware
Wed 10:01:03 AM 60.7780 -28.5050 288° West 490 564 36,000  Level FlightAware
Wed 10:01:59 AM 60.8200 -28.7520 289° West 488 562 36,000  Level FlightAware
Wed 10:02:35 AM 60.8410 -28.8870 288° West 488 562 36,000  Level FlightAware
Wed 10:03:17 AM 60.8820 -29.1290 289° West 485 558 36,000  Level FlightAware
Wed 10:04:07 AM 60.9110 -29.3160 288° West 485 558 36,000  Level FlightAware
Wed 10:04:41 AM 60.9310 -29.4420 288° West 485 558 36,000  Level FlightAware
Wed 10:05:30 AM 60.9600 -29.6260 288° West 485 558 36,000  Level FlightAware
Wed 10:06:07 AM 60.9820 -29.7640 288° West 485 558 36,000  Level FlightAware
Wed 10:07:07 AM 61.0170 -29.9880 288° West 485 558 36,000  Level FlightAware
Wed 10:07:42 AM 61.0380 -30.1190 288° West 485 558 36,000  Level FlightAware
Wed 10:08:33 AM 61.0680 -30.3110 288° West 485 558 36,000  Level FlightAware
Wed 10:09:09 AM 61.0890 -30.4460 288° West 485 558 36,000  Level FlightAware
Wed 10:09:57 AM 61.1170 -30.6260 288° West 485 558 36,000  Level FlightAware
Wed 10:10:33 AM 61.1380 -30.7610 288° West 485 558 36,000  Level FlightAware
Wed 10:11:21 AM 61.1670 -30.9420 288° West 485 558 36,000  Level FlightAware
Wed 10:11:58 AM 61.1880 -31.0810 287° West 485 558 36,000  Level FlightAware
Wed 10:12:44 AM 61.2150 -31.2540 288° West 485 558 36,000  Level FlightAware
Wed 10:15:00 AM 61.1967 -31.8607 296° West  Level Estimated
Wed 10:16:00 AM 61.2647 -32.0888 302° West  Level FlightAware
Wed 10:17:00 AM 61.3323 -32.3180 302° West  Level FlightAware
Wed 10:18:00 AM 61.3996 -32.5481 301° West  Level FlightAware
Wed 10:19:00 AM 61.4664 -32.7793 301° West  Level FlightAware
Wed 10:20:00 AM 61.5328 -33.0114 301° West  Level FlightAware
Wed 10:21:00 AM 61.5989 -33.2445 301° West  Level FlightAware
Wed 10:22:00 AM 61.6646 -33.4787 301° West  Level FlightAware
Wed 10:23:00 AM 61.7298 -33.7138 300° West  Level FlightAware
Wed 10:24:00 AM 61.7947 -33.9499 300° West  Level FlightAware
Wed 10:25:00 AM 61.8591 -34.1870 300° West  Level FlightAware
Wed 10:26:00 AM 61.9232 -34.4251 300° West  Level FlightAware
Wed 10:27:00 AM 61.9868 -34.6642 300° West  Level FlightAware
Wed 10:28:00 AM 62.0500 -34.9043 299° West  Level FlightAware
Wed 10:29:00 AM 62.1128 -35.1454 299° West  Level FlightAware
Wed 10:30:00 AM 62.1752 -35.3874 299° West  Level FlightAware
Wed 10:31:00 AM 62.1559 -35.6610 293° West  Level Estimated
Wed 10:32:00 AM 62.2099 -35.9124 295° West  Level FlightAware
Wed 10:33:00 AM 62.2634 -36.1648 295° West  Level FlightAware
Wed 10:34:00 AM 62.3165 -36.4181 294° West  Level FlightAware
Wed 10:35:00 AM 62.3691 -36.6722 294° West  Level FlightAware
Wed 10:36:00 AM 62.4212 -36.9272 294° West  Level FlightAware
Wed 10:37:00 AM 62.4729 -37.1832 294° West  Level FlightAware
Wed 10:38:00 AM 62.5241 -37.4400 293° West  Level FlightAware
Wed 10:39:00 AM 62.5748 -37.6977 293° West  Level FlightAware
Wed 10:40:00 AM 62.6251 -37.9562 293° West  Level FlightAware
Wed 10:41:00 AM 62.6749 -38.2157 293° West  Level FlightAware
Wed 10:42:00 AM 62.7242 -38.4760 293° West  Level FlightAware
Wed 10:43:00 AM 62.7730 -38.7372 292° West  Level FlightAware
Wed 10:44:00 AM 62.8213 -38.9992 292° West  Level FlightAware
Wed 10:45:00 AM 62.8691 -39.2621 292° West  Level FlightAware
Wed 10:46:00 AM 62.9165 -39.5259 292° West  Level FlightAware
Wed 10:47:00 AM 62.9633 -39.7905 291° West  Level FlightAware
Wed 10:48:00 AM 62.9319 -40.0654 287° West  Level Estimated
Wed 10:49:00 AM 62.9746 -40.3329 289° West  Level FlightAware
Wed 10:50:00 AM 63.0168 -40.6012 289° West  Level FlightAware
Wed 10:51:00 AM 63.0584 -40.8703 289° West  Level FlightAware
Wed 10:52:00 AM 63.0996 -41.1401 289° West  Level FlightAware
Wed 10:53:00 AM 63.1402 -41.4108 288° West  Level FlightAware
Wed 10:53:32 AM 63.3667 -42.4833 287° West 500 575 36,000  Level Gander Center
Wed 10:54:00 AM 63.1803 -41.6821 288° West  Level FlightAware
Wed 10:54:32 AM 63.4000 -42.7833 284° West 500 575 36,000  Level Gander Center
Wed 10:55:00 AM 63.2199 -41.9542 288° West  Level FlightAware
Wed 10:55:53 AM 63.4333 -43.1667 281° West 500 575 36,000  Level Gander Center
Wed 10:56:00 AM 63.2590 -42.2271 288° West  Level FlightAware
Wed 10:56:53 AM 63.4833 -43.4833 290° West 490 564 36,000  Level Gander Center
Wed 10:57:00 AM 63.2976 -42.5006 288° West  Level FlightAware
Wed 10:57:53 AM 63.5167 -43.7667 285° West 490 564 36,000  Level Gander Center
Wed 10:58:00 AM 63.3356 -42.7750 287° West  Level FlightAware
Wed 10:58:53 AM 63.5500 -44.0500 285° West 490 564 36,000  Level Gander Center
Wed 10:59:00 AM 63.3731 -43.0500 287° West  Level FlightAware
Wed 10:59:53 AM 63.5833 -44.3333 285° West 490 564 36,000  Level Gander Center
Wed 11:00:53 AM 63.6000 -44.6667 277° West 490 564 36,000  Level Gander Center
Wed 11:01:53 AM 63.6333 -44.9500 285° West 490 564 36,000  Level Gander Center
Wed 11:02:53 AM 63.6667 -45.2500 284° West 490 564 36,000  Level Gander Center
Wed 11:03:53 AM 63.7000 -45.5333 285° West 490 564 36,000  Level Gander Center
Wed 11:05:24 AM 63.7333 -45.9667 280° West 490 564 36,000  Level Gander Center
Wed 11:06:24 AM 63.7500 -46.2667 277° West 490 564 36,000  Level Gander Center
Wed 11:07:24 AM 63.7833 -46.6000 283° West 490 564 36,000  Level Gander Center
Wed 11:08:24 AM 63.8167 -46.8833 285° West 490 564 36,000  Level Gander Center
Wed 11:10:00 AM 63.8486 -47.3511 279° West  Level FlightAware
Wed 11:11:55 AM 63.9000 -47.9167 279° West 490 564 36,000  Level Gander Center
Wed 11:12:55 AM 63.9167 -48.2500 277° West 490 564 36,000  Level Gander Center
Wed 11:17:00 AM 63.9706 -49.4092 279° West  Level FlightAware
Wed 11:18:55 AM 64.0220 -50.1450 277° West 481 554 36,000  Level FlightAware
Wed 11:19:37 AM 64.0290 -50.3630 274° West 481 554 36,000  Level FlightAware
Wed 11:20:21 AM 64.0360 -50.5860 274° West 481 554 36,000  Level FlightAware
Wed 11:21:06 AM 64.0420 -50.8120 274° West 483 556 36,000  Level FlightAware
Wed 11:21:42 AM 64.0480 -50.9970 274° West 482 555 36,000  Level FlightAware
Wed 11:22:28 AM 64.0540 -51.2340 273° West 483 556 36,000  Level FlightAware
Wed 11:23:10 AM 64.0590 -51.4450 273° West 484 557 36,000  Level FlightAware
Wed 11:23:46 AM 64.0640 -51.6300 274° West 484 557 36,000  Level FlightAware
Wed 11:24:28 AM 64.0680 -51.8430 273° West 483 556 36,000  Level FlightAware
Wed 11:25:11 AM 64.0730 -52.0570 273° West 484 557 36,000  Level FlightAware
Wed 11:25:51 AM 64.0770 -52.2590 273° West 486 559 36,000  Level FlightAware
Wed 11:26:34 AM 64.0810 -52.4840 272° West 487 560 36,000  Level FlightAware
Wed 11:27:14 AM 64.0840 -52.6900 272° West 487 560 36,000  Level FlightAware
Wed 11:27:57 AM 64.0880 -52.9050 273° West 489 563 36,000  Level FlightAware
Wed 11:28:39 AM 64.0910 -53.1240 272° West 490 564 36,000  Level FlightAware
Wed 11:29:23 AM 64.0930 -53.3510 271° West 489 563 36,000  Level FlightAware
Wed 11:30:01 AM 64.0950 -53.5270 272° West 489 563 36,000  Level FlightAware
Wed 11:30:49 AM 64.0960 -53.7380 271° West 489 563 36,000  Level FlightAware
Wed 11:31:27 AM 64.0980 -53.9050 272° West 489 563 36,000  Level FlightAware
Wed 11:32:03 AM 64.0990 -54.0630 271° West 489 563 36,000  Level FlightAware
Wed 11:32:39 AM 64.1000 -54.2220 271° West 489 563 36,000  Level FlightAware
Wed 11:33:27 AM 64.1020 -54.4330 271° West 489 563 36,000  Level FlightAware
Wed 11:34:03 AM 64.1030 -54.5920 271° West 489 563 36,000  Level FlightAware
Wed 11:34:52 AM 64.1040 -54.8070 271° West 489 563 36,000  Level FlightAware
Wed 11:35:29 AM 64.1060 -54.9700 272° West 489 563 36,000  Level FlightAware
Wed 11:36:18 AM 64.1070 -55.1860 271° West 489 563 36,000  Level FlightAware
Wed 11:36:54 AM 64.1080 -55.3450 271° West 489 563 36,000  Level FlightAware
Wed 11:37:29 AM 64.1100 -55.4990 272° West 489 563 36,000  Level FlightAware
Wed 11:38:17 AM 64.1110 -55.7100 271° West 489 563 36,000  Level FlightAware
Wed 11:38:53 AM 64.1120 -55.8690 271° West 489 563 36,000  Level FlightAware
Wed 11:39:28 AM 64.1130 -56.0230 271° West 489 563 36,000  Level FlightAware
Wed 11:40:04 AM 64.1167 -56.5833 271° West 500 575 36,000  Level Gander Center
Wed 11:40:48 AM 64.1000 -56.7333 256° West 440 506 36,000  Level Montreal Center
Wed 11:41:48 AM 64.1000 -57.0167 270° West 480 552 36,000  Level Montreal Center
Wed 11:43:04 AM 64.1000 -57.5333 270° West 500 575 36,000  Level Gander Center
Wed 11:44:04 AM 64.1000 -57.8333 270° West 500 575 36,000  Level Gander Center
Wed 11:44:48 AM 64.0833 -57.9667 254° West 490 564 36,000  Level Montreal Center
Wed 11:45:48 AM 64.0833 -58.3000 270° West 490 564 36,000  Level Montreal Center
Wed 11:47:04 AM 64.0667 -58.7833 266° West 490 564 36,000  Level Gander Center
Wed 11:47:48 AM 64.0667 -58.9333 270° West 490 564 36,000  Level Montreal Center
Wed 11:48:48 AM 64.0500 -59.2167 262° West 490 564 36,000  Level Montreal Center
Wed 11:49:48 AM 64.0500 -59.5333 270° West 490 564 36,000  Level Montreal Center
Wed 11:50:48 AM 64.0333 -59.8167 262° West 490 564 36,000  Level Montreal Center
Wed 11:51:48 AM 64.0167 -60.1333 263° West 490 564 36,000  Level Montreal Center
Wed 11:52:48 AM 63.9500 -60.4333 243° Southwest 480 552 36,000  Level Montreal Center
Wed 11:53:48 AM 63.9167 -60.6833 253° West 480 552 36,000  Level Montreal Center
Wed 11:54:48 AM 63.8833 -60.9833 256° West 480 552 36,000  Level Montreal Center
Wed 11:55:48 AM 63.8167 -61.2833 243° Southwest 480 552 36,000  Level Montreal Center
Wed 11:56:48 AM 63.7833 -61.5667 255° West 480 552 36,000  Level Montreal Center
Wed 11:57:48 AM 63.7167 -61.8333 241° Southwest 480 552 36,000  Level Montreal Center
Wed 11:58:48 AM 63.6833 -62.1167 255° West 480 552 36,000  Level Montreal Center
Wed 11:59:48 AM 63.6167 -62.4167 244° Southwest 480 552 36,000  Level Montreal Center
Wed 12:00:48 PM 63.5833 -62.7000 255° West 490 564 36,000  Level Montreal Center
Wed 12:01:48 PM 63.5333 -62.9833 249° West 480 552 36,000  Level Montreal Center
Wed 12:02:48 PM 63.4833 -63.2500 247° West 480 552 36,000  Level Montreal Center
Wed 12:03:48 PM 63.3667 -63.4333 215° Southwest 480 552 36,000  Level Montreal Center
Wed 12:04:48 PM 63.2667 -63.6333 222° Southwest 480 552 36,000  Level Montreal Center
Wed 12:05:48 PM 63.1833 -63.8500 230° Southwest 480 552 36,000  Level Montreal Center
Wed 12:06:48 PM 63.0833 -64.0500 222° Southwest 480 552 36,000  Level Montreal Center
Wed 12:07:48 PM 62.9833 -64.2667 225° Southwest 480 552 36,000  Level Montreal Center
Wed 12:08:48 PM 62.8833 -64.4667 222° Southwest 480 552 36,000  Level Montreal Center
Wed 12:09:48 PM 62.8000 -64.6500 225° Southwest 480 552 36,000  Level Montreal Center
Wed 12:10:48 PM 62.6833 -64.8333 216° Southwest 480 552 36,000  Level Montreal Center
Wed 12:11:48 PM 62.5833 -65.0500 225° Southwest 480 552 36,000  Level Montreal Center
Wed 12:12:48 PM 62.5000 -65.2333 225° Southwest 470 541 36,000  Level Montreal Center
Wed 12:13:48 PM 62.4167 -65.4000 223° Southwest 470 541 36,000  Level Montreal Center
Wed 12:14:48 PM 62.3000 -65.5833 216° Southwest 470 541 36,000  Level Montreal Center
Wed 12:15:48 PM 62.2000 -65.8000 225° Southwest 470 541 36,000  Level Montreal Center
Wed 12:16:48 PM 62.1000 -65.9833 221° Southwest 470 541 36,000  Level Montreal Center
Wed 12:17:48 PM 62.0167 -66.1500 223° Southwest 480 552 36,000  Level Montreal Center
Wed 12:18:48 PM 61.9000 -66.3667 221° Southwest 470 541 36,000  Level Montreal Center
Wed 12:19:48 PM 61.8167 -66.5333 223° Southwest 470 541 36,000  Level Montreal Center
Wed 12:20:48 PM 61.7167 -66.7167 221° Southwest 460 529 36,000  Level Montreal Center
Wed 12:21:48 PM 61.6167 -66.8833 218° Southwest 470 541 36,000  Level Montreal Center
Wed 12:22:55 PM 61.5167 -67.1333 230° Southwest 470 541 36,000  Level Gander Center
Wed 12:23:55 PM 61.4000 -67.3167 217° Southwest 470 541 36,000  Level Gander Center
Wed 12:24:55 PM 61.3167 -67.5167 229° Southwest 460 529 36,000  Level Gander Center
Wed 12:25:55 PM 61.2167 -67.6667 216° Southwest 470 541 36,000  Level Gander Center
Wed 12:26:55 PM 61.1167 -67.8500 222° Southwest 470 541 36,000  Level Gander Center
Wed 12:27:55 PM 61.0167 -68.0500 224° Southwest 470 541 36,000  Level Gander Center
Wed 12:28:55 PM 60.9333 -68.2000 221° Southwest 470 541 36,000  Level Gander Center
Wed 12:29:55 PM 60.8167 -68.3833 217° Southwest 470 541 36,000  Level Gander Center
Wed 12:30:55 PM 60.7333 -68.5667 227° Southwest 460 529 36,000  Level Gander Center
Wed 12:31:55 PM 60.6333 -68.7167 216° Southwest 470 541 36,000 50 Level Gander Center
Wed 12:32:55 PM 60.5333 -68.9000 222° Southwest 470 541 36,100 250 Climbing Gander Center
Wed 12:33:55 PM 60.4333 -69.0833 222° Southwest 470 541 36,500 500 Climbing Gander Center
Wed 12:34:55 PM 60.3333 -69.2167 213° Southwest 470 541 37,100 500 Climbing Gander Center
Wed 12:35:55 PM 60.2333 -69.4333 227° Southwest 470 541 37,500 425 Climbing Gander Center
Wed 12:36:48 PM 60.1500 -69.5167 206° Southwest 470 541 37,900 265 Climbing Montreal Center
Wed 12:37:48 PM 60.0333 -69.6667 213° Southwest 470 541 38,000 50 Climbing Montreal Center
Wed 12:38:48 PM 59.9500 -69.8167 222° Southwest 470 541 38,000  Level Montreal Center
Wed 12:39:48 PM 59.8333 -70.0000 218° Southwest 470 541 38,000  Level Montreal Center
Wed 12:40:48 PM 59.7333 -70.1500 217° Southwest 480 552 38,000  Level Montreal Center
Wed 12:41:48 PM 59.6333 -70.3500 225° Southwest 470 541 38,000  Level Montreal Center
Wed 12:42:48 PM 59.5333 -70.4833 214° Southwest 470 541 38,000  Level Montreal Center
Wed 12:43:48 PM 59.4167 -70.6667 219° Southwest 470 541 38,000  Level Montreal Center
Wed 12:44:48 PM 59.3333 -70.8167 223° Southwest 470 541 38,000  Level Montreal Center
Wed 12:45:48 PM 59.2167 -71.0000 219° Southwest 470 541 38,000  Level Montreal Center
Wed 12:46:48 PM 59.1167 -71.1500 218° Southwest 470 541 38,000  Level Montreal Center
Wed 12:47:48 PM 59.0333 -71.2833 219° Southwest 470 541 38,000  Level Montreal Center
Wed 12:48:48 PM 58.9167 -71.4667 219° Southwest 470 541 38,000  Level Montreal Center
Wed 12:49:48 PM 58.8167 -71.6167 218° Southwest 470 541 38,000  Level Montreal Center
Wed 12:50:48 PM 58.7000 -71.7833 217° Southwest 470 541 38,000  Level Montreal Center
Wed 12:51:48 PM 58.6167 -71.9333 223° Southwest 470 541 38,000  Level Montreal Center
Wed 12:52:48 PM 58.5000 -72.0667 211° Southwest 460 529 38,000  Level Montreal Center
Wed 12:53:48 PM 58.4000 -72.2333 221° Southwest 460 529 38,000  Level Montreal Center
Wed 12:54:48 PM 58.3000 -72.3833 218° Southwest 460 529 38,000  Level Montreal Center
Wed 12:55:48 PM 58.1833 -72.5167 211° Southwest 470 541 38,000  Level Montreal Center
Wed 12:56:48 PM 58.1000 -72.6833 227° Southwest 460 529 38,000  Level Montreal Center
Wed 12:57:48 PM 58.0000 -72.8167 215° Southwest 460 529 38,000  Level Montreal Center
Wed 12:58:48 PM 57.8833 -72.9833 217° Southwest 460 529 38,000  Level Montreal Center
Wed 12:59:48 PM 57.7833 -73.1167 215° Southwest 460 529 38,000  Level Montreal Center
Wed 01:00:48 PM 57.6667 -73.2500 211° Southwest 460 529 38,000  Level Montreal Center
Wed 01:01:48 PM 57.5667 -73.4167 222° Southwest 460 529 38,000  Level Montreal Center
Wed 01:02:48 PM 57.4667 -73.5500 216° Southwest 460 529 38,000  Level Montreal Center
Wed 01:03:48 PM 57.3500 -73.6833 212° Southwest 460 529 38,000  Level Montreal Center
Wed 01:04:48 PM 57.2667 -73.8500 227° Southwest 470 541 38,000  Level Montreal Center
Wed 01:05:48 PM 57.1500 -73.9833 212° Southwest 470 541 38,000  Level Montreal Center
Wed 01:06:48 PM 57.0500 -74.1333 219° Southwest 460 529 38,000  Level Montreal Center
Wed 01:07:48 PM 56.9500 -74.2667 216° Southwest 460 529 38,000  Level Montreal Center
Wed 01:08:48 PM 56.8333 -74.4000 212° Southwest 460 529 38,000  Level Montreal Center
Wed 01:09:48 PM 56.7333 -74.5500 219° Southwest 460 529 38,000  Level Montreal Center
Wed 01:10:48 PM 56.6333 -74.6833 216° Southwest 460 529 38,000  Level Montreal Center
Wed 01:11:48 PM 56.5167 -74.8000 209° Southwest 460 529 38,000  Level Montreal Center
Wed 01:12:48 PM 56.4167 -74.9500 220° Southwest 460 529 38,000  Level Montreal Center
Wed 01:13:48 PM 56.3167 -75.0833 217° Southwest 460 529 38,000  Level Montreal Center
Wed 01:14:48 PM 56.2000 -75.2000 209° Southwest 470 541 38,000  Level Montreal Center
Wed 01:15:48 PM 56.1000 -75.3500 220° Southwest 470 541 38,000  Level Montreal Center
Wed 01:16:48 PM 55.9833 -75.4833 213° Southwest 470 541 38,000  Level Montreal Center
Wed 01:17:48 PM 55.8833 -75.6333 220° Southwest 470 541 38,000  Level Montreal Center
Wed 01:18:48 PM 55.7667 -75.7500 209° Southwest 470 541 38,000  Level Montreal Center
Wed 01:19:48 PM 55.6667 -75.9000 220° Southwest 470 541 38,000  Level Montreal Center
Wed 01:20:48 PM 55.5500 -76.0167 210° Southwest 470 541 38,000  Level Montreal Center
Wed 01:21:48 PM 55.4500 -76.1333 214° Southwest 470 541 38,000  Level Montreal Center
Wed 01:22:48 PM 55.3333 -76.2833 216° Southwest 470 541 38,000  Level Montreal Center
Wed 01:23:48 PM 55.2167 -76.4000 210° Southwest 470 541 38,000  Level Montreal Center
Wed 01:24:48 PM 55.1000 -76.5500 216° Southwest 470 541 38,000  Level Montreal Center
Wed 01:25:48 PM 55.0000 -76.6667 214° Southwest 470 541 38,000  Level Montreal Center
Wed 01:26:48 PM 54.8833 -76.7833 210° Southwest 470 541 38,000  Level Montreal Center
Wed 01:27:48 PM 54.7833 -76.9333 221° Southwest 470 541 38,000  Level Montreal Center
Wed 01:28:48 PM 54.6833 -77.0333 210° Southwest 470 541 38,000  Level Montreal Center
Wed 01:29:48 PM 54.5667 -77.1833 217° Southwest 470 541 38,000  Level Montreal Center
Wed 01:30:48 PM 54.4667 -77.3000 214° Southwest 470 541 38,000  Level Montreal Center
Wed 01:31:48 PM 54.3500 -77.4333 214° Southwest 470 541 38,000  Level Montreal Center
Wed 01:32:48 PM 54.2167 -77.5500 207° Southwest 470 541 38,000  Level Montreal Center
Wed 01:33:48 PM 54.1167 -77.6833 218° Southwest 470 541 38,000  Level Montreal Center
Wed 01:34:48 PM 54.0000 -77.8000 210° Southwest 470 541 38,000  Level Montreal Center
Wed 01:35:48 PM 53.9000 -77.9000 211° Southwest 470 541 38,000  Level Montreal Center
Wed 01:36:48 PM 53.7833 -78.0500 217° Southwest 470 541 38,000  Level Montreal Center
Wed 01:37:48 PM 53.6667 -78.1500 207° Southwest 480 552 38,000  Level Montreal Center
Wed 01:38:48 PM 53.5500 -78.2833 214° Southwest 480 552 38,000  Level Montreal Center
Wed 01:39:48 PM 53.4500 -78.4000 215° Southwest 470 541 38,000  Level Montreal Center
Wed 01:40:48 PM 53.3333 -78.5333 214° Southwest 470 541 38,000  Level Montreal Center
Wed 01:41:48 PM 53.2333 -78.6333 211° Southwest 470 541 38,000  Level Montreal Center
Wed 01:42:48 PM 53.1000 -78.7333 204° Southwest 470 541 38,000  Level Montreal Center
Wed 01:43:48 PM 53.0000 -78.8667 219° Southwest 470 541 38,000  Level Montreal Center
Wed 01:44:48 PM 52.8833 -78.9833 211° Southwest 470 541 38,000  Level Montreal Center
Wed 01:45:48 PM 52.7833 -79.1167 219° Southwest 470 541 38,000  Level Montreal Center
Wed 01:46:48 PM 52.6500 -79.2167 204° Southwest 470 541 38,000  Level Montreal Center
Wed 01:47:48 PM 52.5500 -79.3167 211° Southwest 470 541 38,000  Level Montreal Center
Wed 01:48:48 PM 52.4333 -79.4500 215° Southwest 470 541 38,000  Level Montreal Center
Wed 01:49:48 PM 52.3333 -79.5500 211° Southwest 470 541 38,000  Level Montreal Center
Wed 01:50:48 PM 52.1833 -79.6500 202° Southwest 470 541 38,000  Level Montreal Center
Wed 01:52:48 PM 51.9833 -79.8667 214° Southwest 470 541 38,000  Level Montreal Center
Wed 01:53:48 PM 51.8667 -79.9667 208° Southwest 470 541 38,000  Level Montreal Center
Wed 01:54:48 PM 51.7333 -80.0667 205° Southwest 470 541 38,000  Level Montreal Center
Wed 01:55:48 PM 51.6167 -80.2000 215° Southwest 480 552 38,000  Level Montreal Center
Wed 01:56:48 PM 51.5167 -80.3000 212° Southwest 470 541 38,000  Level Montreal Center
Wed 01:57:48 PM 51.3833 -80.3833 201° Southwest 480 552 38,000  Level Montreal Center
Wed 01:58:48 PM 51.2667 -80.4833 208° Southwest 480 552 38,000  Level Montreal Center
Wed 01:59:48 PM 51.1667 -80.5833 212° Southwest 480 552 38,000  Level Montreal Center
Wed 02:00:48 PM 51.0333 -80.7000 209° Southwest 480 552 38,000  Level Montreal Center
Wed 02:01:48 PM 50.9167 -80.8000 208° Southwest 480 552 38,000  Level Montreal Center
Wed 02:02:48 PM 50.8000 -80.9000 208° Southwest 480 552 38,000  Level Montreal Center
Wed 02:03:48 PM 50.6833 -81.0167 212° Southwest 480 552 38,000  Level Montreal Center
Wed 02:04:48 PM 50.5667 -81.1000 204° Southwest 480 552 38,000  Level Montreal Center
Wed 02:05:48 PM 50.4500 -81.2000 209° Southwest 480 552 38,000  Level Montreal Center
Wed 02:06:48 PM 50.3167 -81.3167 209° Southwest 470 541 38,000  Level Montreal Center
Wed 02:07:48 PM 50.2167 -81.4167 213° Southwest 470 541 38,000  Level Montreal Center
Wed 02:08:48 PM 50.1000 -81.5000 205° Southwest 470 541 38,000  Level Montreal Center
Wed 02:09:48 PM 49.9833 -81.6000 209° Southwest 470 541 38,000  Level Montreal Center
Wed 02:10:48 PM 49.8667 -81.6833 205° Southwest 470 541 38,000  Level Montreal Center
Wed 02:11:48 PM 49.7333 -81.8000 210° Southwest 470 541 38,000  Level Montreal Center
Wed 02:12:48 PM 49.6333 -81.8833 208° Southwest 470 541 38,000  Level Montreal Center
Wed 02:13:48 PM 49.5167 -81.9833 209° Southwest 470 541 38,000  Level Montreal Center
Wed 02:14:48 PM 49.4000 -82.0667 205° Southwest 470 541 38,000  Level Montreal Center
Wed 02:15:48 PM 49.2833 -82.1833 213° Southwest 470 541 38,000  Level Montreal Center
Wed 02:16:48 PM 49.1667 -82.2667 205° Southwest 470 541 38,000  Level Montreal Center
Wed 02:17:48 PM 49.0500 -82.3667 209° Southwest 470 541 38,000  Level Montreal Center
Wed 02:18:48 PM 48.9333 -82.4500 205° Southwest 470 541 38,000  Level Montreal Center
Wed 02:19:48 PM 48.8000 -82.5333 202° Southwest 470 541 38,000  Level Montreal Center
Wed 02:25:57 PM 48.0810 -83.0450 202° Southwest 479 551 38,000  Level FlightAware
Wed 02:26:41 PM 47.9910 -83.1000 202° Southwest 480 552 38,000  Level FlightAware
Wed 02:27:17 PM 47.9170 -83.1460 203° Southwest 480 552 38,000  Level FlightAware
Wed 02:27:57 PM 47.8370 -83.1960 203° Southwest 481 554 38,000  Level FlightAware
Wed 02:28:41 PM 47.7450 -83.2530 203° Southwest 481 554 38,000  Level FlightAware
Wed 02:29:19 PM 47.6670 -83.3010 203° Southwest 481 554 38,000  Level FlightAware
Wed 02:30:05 PM 47.5740 -83.3580 202° Southwest 479 551 38,000  Level FlightAware
Wed 02:30:43 PM 47.4960 -83.4060 203° Southwest 477 549 38,000  Level FlightAware
Wed 02:31:29 PM 47.4020 -83.4620 202° Southwest 477 549 38,000  Level FlightAware
Wed 02:32:09 PM 47.3180 -83.5070 200° South 478 550 38,000  Level FlightAware
Wed 02:32:54 PM 47.2280 -83.5530 199° South 477 549 38,000  Level FlightAware
Wed 02:33:45 PM 47.1170 -83.6080 199° South 478 550 38,000  Level FlightAware
Wed 02:34:17 PM 47.0500 -83.6410 199° South 478 550 38,000  Level FlightAware
Wed 02:34:57 PM 46.9680 -83.6820 199° South 477 549 38,000  Level FlightAware
Wed 02:35:41 PM 46.8760 -83.7270 198° South 477 549 38,000  Level FlightAware
Wed 02:36:17 PM 46.8000 -83.7650 199° South 476 548 38,000  Level FlightAware
Wed 02:36:57 PM 46.7170 -83.8060 199° South 475 547 38,000  Level FlightAware
Wed 02:37:39 PM 46.6290 -83.8490 199° South 477 549 38,000  Level FlightAware
Wed 02:38:18 PM 46.5490 -83.8890 199° South 478 550 38,000  Level FlightAware
Wed 02:38:54 PM 46.4740 -83.9250 198° South 478 550 38,000  Level FlightAware
Wed 02:39:36 PM 46.3850 -83.9690 199° South 479 551 38,000  Level FlightAware
Wed 02:40:18 PM 46.2960 -84.0120 198° South 480 552 38,000  Level FlightAware
Wed 02:41:02 PM 46.2040 -84.0560 198° South 480 552 38,000  Level FlightAware
Wed 02:41:40 PM 46.1250 -84.0950 199° South 477 549 38,000  Level FlightAware
Wed 02:42:26 PM 46.0280 -84.1410 198° South 476 548 38,000  Level FlightAware
Wed 02:43:10 PM 45.9350 -84.1860 199° South 475 547 38,000 -158 Level FlightAware
Wed 02:43:42 PM 45.8720 -84.2160 198° South 474 545 37,800 -553 Descending FlightAware
Wed 02:44:26 PM 45.7800 -84.2600 198° South 468 539 37,300 -837 Descending FlightAware
Wed 02:45:08 PM 45.6920 -84.3010 198° South 472 543 36,600 -878 Descending FlightAware
Wed 02:45:48 PM 45.6110 -84.3400 199° South 467 537 36,100 -429 Descending FlightAware
Wed 02:46:32 PM 45.5210 -84.3820 198° South 462 532 36,000 -71 Descending FlightAware
Wed 02:47:12 PM 45.4400 -84.4210 199° South 465 535 36,000  Level FlightAware
Wed 02:47:56 PM 45.3500 -84.4630 198° South 466 536 36,000  Level FlightAware
Wed 02:48:25 PM 45.2950 -84.4890 198° South 466 536 36,000  Level FlightAware
Wed 02:49:14 PM 45.1920 -84.5370 198° South 464 534 36,000  Level FlightAware
Wed 02:49:56 PM 45.1060 -84.5770 198° South 464 534 36,000  Level FlightAware
Wed 02:50:26 PM 45.0430 -84.6060 198° South 465 535 36,000  Level FlightAware
Wed 02:51:12 PM 44.9490 -84.6490 198° South 466 536 36,000  Level FlightAware
Wed 02:51:52 PM 44.8680 -84.6860 198° South 467 537 36,000  Level FlightAware
Wed 02:52:43 PM 44.7660 -84.7340 198° South 467 537 36,000  Level FlightAware
Wed 02:53:25 PM 44.6780 -84.7740 198° South 467 537 36,000  Level FlightAware
Wed 02:54:06 PM 44.5950 -84.8120 198° South 467 537 36,000  Level FlightAware
Wed 02:54:48 PM 44.5090 -84.8510 198° South 465 535 36,000  Level FlightAware
Wed 02:55:29 PM 44.4220 -84.8900 198° South 464 534 36,000  Level FlightAware
Wed 02:56:10 PM 44.3400 -84.9270 198° South 464 534 36,000  Level FlightAware
Wed 02:56:52 PM 44.2540 -84.9660 198° South 464 534 36,000  Level FlightAware
Wed 02:57:30 PM 44.1770 -85.0010 198° South 464 534 36,000  Level FlightAware
Wed 02:58:12 PM 44.0900 -85.0400 198° South 464 534 36,000  Level FlightAware
Wed 02:58:52 PM 44.0080 -85.0760 198° South 465 535 36,000  Level FlightAware
Wed 02:59:36 PM 43.9180 -85.1160 198° South 466 536 36,000 -286 Level FlightAware
Wed 03:00:16 PM 43.8370 -85.1520 198° South 463 533 35,600 -1,786 Descending FlightAware
Wed 03:01:00 PM 43.7480 -85.1920 198° South 462 532 33,500 -2,500 Descending FlightAware
Wed 03:01:40 PM 43.6640 -85.2250 196° South 471 542 32,100 -1,406 Descending FlightAware
Wed 03:02:04 PM 43.6150 -85.2460 197° South 465 535 32,000 -600 Descending FlightAware
Wed 03:02:50 PM 43.5370 -85.3230 216° Southwest 446 513 31,400 -1,909 Descending FlightAware
Wed 03:03:32 PM 43.4820 -85.4170 231° Southwest 444 511 29,200 -3,036 Descending FlightAware
Wed 03:04:13 PM 43.4300 -85.5060 231° Southwest 442 509 27,200 -2,643 Descending FlightAware
Wed 03:04:56 PM 43.3750 -85.6000 231° Southwest 449 517 25,500 -1,341 Descending FlightAware
Wed 03:05:38 PM 43.3200 -85.6930 231° Southwest 440 506 25,300 -659 Descending FlightAware
Wed 03:06:18 PM 43.2720 -85.7720 230° Southwest 436 502 24,600 -1,000 Descending FlightAware
Wed 03:07:02 PM 43.2130 -85.8710 231° Southwest 429 494 23,900 -1,125 Descending FlightAware
Wed 03:07:38 PM 43.1680 -85.9470 231° Southwest 425 489 23,100 -1,310 Descending FlightAware
Wed 03:08:29 PM 43.1040 -86.0530 230° Southwest 423 487 22,000 -733 Descending FlightAware
Wed 03:09:08 PM 43.0570 -86.1310 231° Southwest 427 491 22,000  Level FlightAware
Wed 03:09:50 PM 43.0030 -86.2200 230° Southwest 426 490 22,000  Level FlightAware
Wed 03:10:34 PM 42.9470 -86.3120 230° Southwest 426 490 22,000  Level FlightAware
Wed 03:11:08 PM 42.9050 -86.3810 230° Southwest 426 490 22,000  Level FlightAware
Wed 03:11:56 PM 42.8440 -86.4810 230° Southwest 426 490 22,000  Level FlightAware
Wed 03:12:38 PM 42.7930 -86.5680 231° Southwest 421 484 22,000 -1,259 Level FlightAware
Wed 03:13:17 PM 42.7490 -86.6540 235° Southwest 415 478 20,300 -2,286 Descending FlightAware
Wed 03:14:02 PM 42.7010 -86.7490 236° Southwest 405 466 18,800 -2,292 Descending FlightAware
Wed 03:14:46 PM 42.6530 -86.8400 234° Southwest 399 459 16,900 -2,500 Descending FlightAware
Wed 03:15:26 PM 42.6110 -86.9200 235° Southwest 394 453 15,300 -2,341 Descending FlightAware
Wed 03:16:08 PM 42.5670 -87.0030 234° Southwest 387 445 13,700 -2,368 Descending FlightAware
Wed 03:16:42 PM 42.5310 -87.0710 234° Southwest 380 437 12,300 -2,231 Descending FlightAware
Wed 03:17:26 PM 42.4870 -87.1530 234° Southwest 370 426 10,800 -1,326 Descending FlightAware
Wed 03:18:08 PM 42.4480 -87.2270 234° Southwest 333 383 10,400 -750 Descending FlightAware
Wed 03:18:30 PM 42.4270 -87.2660 234° Southwest 327 376 10,000 -720 Descending FlightAware
Wed 03:18:58 PM 42.4040 -87.3120 236° Southwest 347 399 9,800 -107 Descending FlightAware
Wed 03:19:26 PM 42.3850 -87.3680 245° Southwest 345 397 9,900 107 Climbing FlightAware
Wed 03:19:54 PM 42.3680 -87.4270 249° West 345 397 9,900  Level FlightAware
Wed 03:20:18 PM 42.3550 -87.4760 250° West 345 397 9,900  Level FlightAware
Wed 03:20:38 PM 42.3430 -87.5140 247° West 345 397 9,900  Level FlightAware
Wed 03:20:56 PM 42.3270 -87.5460 236° Southwest 348 400 9,900  Level FlightAware
Wed 03:21:08 PM 42.3120 -87.5630 220° Southwest 350 403 9,900  Level FlightAware
Wed 03:21:36 PM 42.2770 -87.6010 219° Southwest 350 403 9,900  Level FlightAware
Wed 03:22:04 PM 42.2400 -87.6390 217° Southwest 351 404 9,900  Level FlightAware
Wed 03:22:32 PM 42.2040 -87.6760 217° Southwest 351 404 9,900  Level FlightAware
Wed 03:23:00 PM 42.1670 -87.7140 217° Southwest 351 404 9,900  Level FlightAware
Wed 03:23:17 PM 42.1470 -87.7360 219° Southwest 351 404 9,900  Level FlightAware
Wed 03:23:44 PM 42.1120 -87.7730 218° Southwest 351 404 9,900  Level FlightAware
Wed 03:24:14 PM 42.0750 -87.8130 219° Southwest 326 375 9,900 -207 Level FlightAware
Wed 03:24:42 PM 42.0430 -87.8460 217° Southwest 303 349 9,700 -750 Descending FlightAware
Wed 03:25:10 PM 42.0130 -87.8780 218° Southwest 293 337 9,200 -1,125 Descending FlightAware
Wed 03:25:30 PM 41.9920 -87.9010 219° Southwest 291 335 8,800 -1,375 Descending FlightAware
Wed 03:25:58 PM 41.9640 -87.9350 222° Southwest 286 329 8,100 -964 Descending FlightAware
Wed 03:26:26 PM 41.9430 -87.9760 235° Southwest 289 333 7,900 -214 Descending FlightAware
Wed 03:26:54 PM 41.9230 -88.0170 237° Southwest 278 320 7,900  Level FlightAware
Wed 03:27:14 PM 41.9120 -88.0480 245° Southwest 256 295 7,900 -150 Level FlightAware
Wed 03:27:34 PM 41.9050 -88.0770 252° West 239 275 7,800 -875 Descending FlightAware
Wed 03:28:02 PM 41.9020 -88.1170 264° West 234 269 7,200 -1,345 Descending FlightAware
Wed 03:28:32 PM 41.9000 -88.1610 267° West 233 268 6,500 -1,286 Descending FlightAware
Wed 03:28:58 PM 41.8970 -88.1970 264° West 227 261 6,000 -857 Descending FlightAware
Wed 03:29:14 PM 41.8940 -88.2180 259° West 216 249 5,900 -545 Descending FlightAware
Wed 03:29:42 PM 41.8870 -88.2540 255° West 202 232 5,600 -643 Descending FlightAware
Wed 03:30:10 PM 41.8820 -88.2870 259° West 188 216 5,300 -750 Descending FlightAware
Wed 03:30:38 PM 41.8800 -88.3190 265° West 182 209 4,900 -455 Descending FlightAware
Wed 03:31:16 PM 41.8830 -88.3580 276° West 182 209 4,800  Descending FlightAware
Wed 03:31:32 PM 41.8960 -88.3700 326° Northwest 185 213 4,900 136 Climbing FlightAware
Wed 03:32:00 PM 41.9190 -88.3730 354° North 186 214 4,900 -120 Level FlightAware
Wed 03:32:22 PM 41.9390 -88.3740 358° North 180 207 4,800  Descending FlightAware
Wed 03:32:42 PM 41.9520 -88.3660 25° Northeast 182 209 4,900 167 Climbing FlightAware
Wed 03:32:58 PM 41.9600 -88.3510 54° Northeast 186 214 4,900  Level FlightAware
Wed 03:33:10 PM 41.9640 -88.3380 68° East 186 214 4,900  Level FlightAware
Wed 03:33:38 PM 41.9680 -88.3050 81° East 187 215 4,900  Level FlightAware
Wed 03:34:06 PM 41.9670 -88.2730 92° East 185 213 4,900  Level FlightAware
Wed 03:34:45 PM 41.9680 -88.2270 88° East 183 211 4,900 -348 Level FlightAware
Wed 03:35:15 PM 41.9680 -88.1930 90° East 184 212 4,500 -1,000 Descending FlightAware
Wed 03:35:39 PM 41.9690 -88.1660 87° East 186 214 4,000 -1,099 Descending FlightAware
Wed 03:36:26 PM 41.9690 -88.1140 90° East 180 207 3,200 -989 Descending FlightAware
Wed 03:37:10 PM 41.9690 -88.0670 90° East 179 206 2,500 -923 Descending FlightAware
Wed 03:37:44 PM 41.9690 -88.0270 90° East 168 193 2,000 -931 Descending FlightAware
Wed 03:38:08 PM 41.9690 -88.0040 90° East 146 168 1,600 -873 Descending FlightAware
Wed 03:38:39 PM 41.9690 -87.9760 90° East 148 170 1,200 -712 Descending FlightAware
Wed 03:39:07 PM 41.9690 -87.9500 90° East 144 166 900 -783 Descending FlightAware
Wed 03:39:25 PM 41.9690 -87.9340 90° East 144 166 600 -400 Descending FlightAware
Wed 03:39:52 PM 41.9690 -87.9140 90° East 144 166 600  Level FlightAware

Login

Don't have an account? Register now (free) for customized features, flight alerts, and more!